createdAt,value
2022-12-13T00:03:02.045Z,100677.59
2022-12-13T00:08:03.700Z,100682.09
2022-12-13T00:13:05.587Z,100670.75
2022-12-13T00:18:06.988Z,100672.84
2022-12-13T00:23:08.334Z,100674.06
2022-12-13T00:28:10.641Z,100677.13
2022-12-13T00:33:12.024Z,100670.50
2022-12-13T00:38:13.381Z,100665.88
2022-12-13T00:43:14.730Z,100670.25
2022-12-13T00:48:16.080Z,100676.53
2022-12-13T00:53:17.530Z,100683.75
2022-12-13T00:58:19.005Z,100676.16
2022-12-13T01:03:20.525Z,100677.34
2022-12-13T01:08:22.151Z,100685.16
2022-12-13T01:13:23.636Z,100673.53
2022-12-13T01:18:25.101Z,100667.16
2022-12-13T01:23:27.900Z,100664.09
2022-12-13T01:28:29.297Z,100662.75
2022-12-13T01:33:31.502Z,100660.03
2022-12-13T01:38:37.673Z,100665.13
2022-12-13T01:43:39.526Z,100672.25
2022-12-13T01:48:47.610Z,100670.81
2022-12-13T01:53:50.520Z,100667.59
2022-12-13T01:58:55.148Z,100677.66
2022-12-13T02:03:56.509Z,100672.22
2022-12-13T02:08:58.040Z,100671.13
2022-12-13T02:13:59.461Z,100671.03
2022-12-13T02:19:43.005Z,100679.06
2022-12-13T02:24:59.476Z,100665.69
2022-12-13T02:30:39.895Z,100667.09
2022-12-13T02:35:53.010Z,100664.72
2022-12-13T02:41:05.949Z,100673.09
2022-12-13T02:46:09.620Z,100668.03
2022-12-13T02:51:12.544Z,100667.47
2022-12-13T02:56:14.238Z,100667.50
2022-12-13T03:01:32.033Z,100660.91
2022-12-13T03:06:45.125Z,100651.53
2022-12-13T03:12:11.646Z,100658.88
2022-12-13T03:17:16.511Z,100660.28
2022-12-13T03:22:17.887Z,100667.00
2022-12-13T03:27:19.228Z,100659.69
2022-12-13T03:32:20.588Z,100650.97
2022-12-13T03:37:22.271Z,100653.28
2022-12-13T03:42:23.720Z,100660.28
2022-12-13T03:47:25.113Z,100658.13
2022-12-13T03:52:26.593Z,100656.63
2022-12-13T03:57:28.162Z,100649.94
2022-12-13T04:02:30.666Z,100650.75
2022-12-13T04:07:34.144Z,100656.53
2022-12-13T04:12:36.000Z,100657.66
2022-12-13T04:17:37.817Z,100655.22
2022-12-13T04:22:39.259Z,100655.38
2022-12-13T04:27:40.655Z,100647.97
2022-12-13T04:32:42.054Z,100646.38
2022-12-13T04:37:44.406Z,100655.13
2022-12-13T04:42:45.797Z,100648.97
2022-12-13T04:47:47.167Z,100653.91
2022-12-13T04:52:48.582Z,100647.59
2022-12-13T04:57:49.998Z,100640.63
2022-12-13T05:02:51.390Z,100631.81
2022-12-13T05:07:52.814Z,100629.94
2022-12-13T05:12:54.163Z,100621.34
2022-12-13T05:17:59.315Z,100623.53
2022-12-13T05:23:01.576Z,100626.34
2022-12-13T05:28:26.933Z,100637.66
2022-12-13T05:33:25.716Z,100628.53
2022-12-13T05:38:27.539Z,100626.25
2022-12-13T05:43:41.944Z,100616.91
2022-12-13T05:48:44.933Z,100620.34
2022-12-13T05:53:51.584Z,100613.59
2022-12-13T05:58:54.744Z,100624.81
2022-12-13T06:03:56.207Z,100611.97
2022-12-13T06:08:59.511Z,100619.41
2022-12-13T06:14:01.468Z,100613.88
2022-12-13T06:19:04.684Z,100616.09
2022-12-13T06:24:06.824Z,100610.59
2022-12-13T06:29:08.267Z,100612.84
2022-12-13T06:34:14.795Z,100603.41
2022-12-13T06:39:17.106Z,100604.25
2022-12-13T06:44:18.452Z,100606.03
2022-12-13T06:49:19.822Z,100608.16
2022-12-13T06:54:23.687Z,100602.38
2022-12-13T06:59:25.347Z,100609.22
2022-12-13T07:04:29.843Z,100606.19
2022-12-13T07:09:34.184Z,100606.94
2022-12-13T07:14:41.114Z,100603.91
2022-12-13T07:19:43.271Z,100600.47
2022-12-13T07:24:44.993Z,100617.31
2022-12-13T07:29:46.390Z,100619.41
2022-12-13T07:34:47.771Z,100619.75
2022-12-13T07:39:49.402Z,100610.91
2022-12-13T07:44:50.777Z,100614.44
2022-12-13T07:49:52.178Z,100609.88
2022-12-13T07:54:53.515Z,100618.19
2022-12-13T07:59:55.121Z,100615.34
2022-12-13T08:04:56.529Z,100612.69
2022-12-13T08:09:58.063Z,100616.31
2022-12-13T08:14:59.424Z,100613.41
2022-12-13T08:20:00.740Z,100616.03
2022-12-13T08:25:02.092Z,100630.09
2022-12-13T08:30:04.158Z,100626.84
2022-12-13T08:35:06.003Z,100633.47
2022-12-13T08:40:07.996Z,100633.63
2022-12-13T08:45:10.008Z,100624.66
2022-12-13T08:50:11.427Z,100632.97
2022-12-13T08:55:14.300Z,100633.38
2022-12-13T09:00:18.396Z,100634.00
2022-12-13T09:05:34.198Z,100625.97
2022-12-13T09:10:38.318Z,100642.34
2022-12-13T09:15:51.007Z,100642.06
2022-12-13T09:20:52.545Z,100639.19
2022-12-13T09:26:05.491Z,100640.63
2022-12-13T09:31:17.102Z,100637.09
2022-12-13T09:36:21.402Z,100647.41
2022-12-13T09:41:31.305Z,100642.69
2022-12-13T09:46:44.705Z,100639.81
2022-12-13T09:52:04.499Z,100635.91
2022-12-13T09:57:32.837Z,100648.81
2022-12-13T10:02:43.119Z,100650.81
2022-12-13T10:07:44.681Z,100642.47
2022-12-13T10:12:52.508Z,100635.47
2022-12-13T10:17:55.210Z,100623.44
2022-12-13T10:23:31.427Z,100612.03
2022-12-13T10:28:26.298Z,100602.59
2022-12-13T10:33:31.771Z,100591.41
2022-12-13T10:38:41.594Z,100596.50
2022-12-13T10:43:42.970Z,100591.28
2022-12-13T10:48:50.517Z,100585.22
2022-12-13T10:53:54.591Z,100570.00
2022-12-13T10:59:26.726Z,100556.66
2022-12-13T11:04:33.900Z,100546.09
2022-12-13T11:09:38.538Z,100537.06
2022-12-13T11:14:51.464Z,100541.09
2022-12-13T11:19:57.478Z,100531.47
2022-12-13T11:25:05.784Z,100527.22
2022-12-13T11:30:19.102Z,100510.88
2022-12-13T11:35:29.104Z,100506.91
2022-12-13T11:40:41.459Z,100519.28
2022-12-13T11:45:47.181Z,100516.34
2022-12-13T11:50:52.476Z,100505.16
2022-12-13T11:56:24.729Z,100502.69
2022-12-13T12:01:32.189Z,100502.78
2022-12-13T12:06:47.837Z,100489.72
2022-12-13T12:12:00.161Z,100491.16
2022-12-13T12:17:04.033Z,100483.63
2022-12-13T12:22:14.087Z,100480.53
2022-12-13T12:27:43.446Z,100493.94
2022-12-13T12:32:54.168Z,100477.13
2022-12-13T12:38:17.219Z,100468.91
2022-12-13T12:43:38.753Z,100464.72
2022-12-13T12:49:08.367Z,100455.13
2022-12-13T12:54:31.968Z,100454.69
2022-12-13T12:59:39.664Z,100448.69
2022-12-13T13:04:47.626Z,100440.50
2022-12-13T13:09:50.301Z,100441.69
2022-12-13T13:14:56.165Z,100441.38
2022-12-13T13:20:23.988Z,100450.38
2022-12-13T13:25:33.311Z,100448.78
2022-12-13T13:30:35.773Z,100455.81
2022-12-13T13:35:43.749Z,100450.06
2022-12-13T13:40:45.177Z,100447.72
2022-12-13T13:45:49.328Z,100442.34
2022-12-13T13:51:28.545Z,100441.72
2022-12-13T13:57:07.054Z,100438.56
2022-12-13T14:02:47.180Z,100438.34
2022-12-13T14:07:54.461Z,100440.47
2022-12-13T14:13:52.185Z,100457.13
2022-12-13T14:19:21.676Z,100435.50
2022-12-13T14:24:41.434Z,100429.88
2022-12-13T14:29:48.473Z,100422.00
2022-12-13T14:34:50.565Z,100411.78
2022-12-13T14:39:52.041Z,100422.59
2022-12-13T14:44:53.555Z,100409.97
2022-12-13T14:49:55.416Z,100412.09
2022-12-13T14:54:59.359Z,100406.47
2022-12-13T15:00:20.720Z,100407.59
2022-12-13T15:05:34.419Z,100405.03
2022-12-13T15:10:42.081Z,100394.13
2022-12-13T15:16:00.888Z,100383.16
2022-12-13T15:21:02.719Z,100392.56
2022-12-13T15:26:28.743Z,100375.75
2022-12-13T15:31:34.341Z,100380.44
2022-12-13T15:36:38.186Z,100370.56
2022-12-13T15:41:46.081Z,100366.03
2022-12-13T15:46:49.891Z,100357.53
2022-12-13T15:52:00.578Z,100352.88
2022-12-13T15:57:10.763Z,100353.84
2022-12-13T16:02:20.622Z,100361.13
2022-12-13T16:07:25.472Z,100348.91
2022-12-13T16:12:37.431Z,100333.22
2022-12-13T16:17:40.893Z,100324.16
2022-12-13T16:22:43.133Z,100321.25
2022-12-13T16:27:45.686Z,100321.81
2022-12-13T16:38:25.950Z,100312.88
2022-12-13T16:43:34.220Z,100313.88
2022-12-13T16:48:36.034Z,100302.88
2022-12-13T16:53:37.569Z,100309.06
2022-12-13T16:58:38.957Z,100311.97
2022-12-13T17:03:40.930Z,100318.41
2022-12-13T17:08:42.502Z,100318.66
2022-12-13T17:13:43.977Z,100321.13
2022-12-13T17:18:45.376Z,100313.31
2022-12-13T17:23:46.798Z,100315.50
2022-12-13T17:28:48.237Z,100317.84
2022-12-13T17:33:49.901Z,100314.56
2022-12-13T17:38:51.492Z,100298.19
2022-12-13T17:43:52.884Z,100296.00
2022-12-13T17:48:54.272Z,100293.66
2022-12-13T17:53:55.639Z,100294.78
2022-12-13T17:58:59.193Z,100300.00
2022-12-13T18:04:00.580Z,100286.09
2022-12-13T18:09:02.097Z,100292.28
2022-12-13T18:14:05.744Z,100312.03
2022-12-13T18:19:10.478Z,100307.94
2022-12-13T18:24:12.332Z,100314.56
2022-12-13T18:29:14.251Z,100304.38
2022-12-13T18:34:15.686Z,100299.16
2022-12-13T18:39:17.143Z,100303.09
2022-12-13T18:44:18.589Z,100297.34
2022-12-13T18:49:19.980Z,100295.56
2022-12-13T18:54:21.438Z,100283.47
2022-12-13T18:59:23.288Z,100278.69
2022-12-13T19:04:24.664Z,100275.66
2022-12-13T19:09:26.044Z,100272.06
2022-12-13T19:14:28.324Z,100268.50
2022-12-13T19:19:29.648Z,100264.81
2022-12-13T19:24:31.057Z,100264.38
2022-12-13T19:29:32.532Z,100258.03
2022-12-13T19:34:34.534Z,100256.53
2022-12-13T19:39:36.047Z,100242.81
2022-12-13T19:44:37.455Z,100234.31
2022-12-13T19:49:38.940Z,100227.72
2022-12-13T19:54:40.371Z,100226.50
2022-12-13T19:59:41.788Z,100220.44
2022-12-13T20:04:43.353Z,100212.63
2022-12-13T20:09:44.770Z,100203.00
2022-12-13T20:14:46.180Z,100207.66
2022-12-13T20:19:47.568Z,100213.16
2022-12-13T20:24:50.058Z,100200.69
2022-12-13T20:29:51.436Z,100200.25
2022-12-13T20:34:55.120Z,100198.34
2022-12-13T20:39:56.685Z,100196.53
2022-12-13T20:44:58.085Z,100175.00
2022-12-13T20:49:59.509Z,100167.44
2022-12-13T20:55:00.896Z,100157.31
2022-12-13T21:00:03.280Z,100144.94
2022-12-13T21:05:04.931Z,100133.84
2022-12-13T21:10:06.976Z,100129.19
2022-12-13T21:15:08.876Z,100120.28
2022-12-13T21:20:10.341Z,100105.97
2022-12-13T21:25:11.722Z,100104.88
2022-12-13T21:30:13.529Z,100099.13
2022-12-13T21:35:14.931Z,100088.41
2022-12-13T21:40:16.546Z,100082.94
2022-12-13T21:45:17.976Z,100083.34
2022-12-13T21:50:19.414Z,100076.22
2022-12-13T22:00:43.800Z,100065.25
2022-12-13T22:05:45.180Z,100056.50
2022-12-13T22:10:46.512Z,100054.44
2022-12-13T22:15:47.867Z,100048.09
2022-12-13T22:20:57.109Z,100048.66
2022-12-13T22:25:58.501Z,100045.50
2022-12-13T22:30:59.882Z,100042.63
2022-12-13T22:36:01.286Z,100021.91
2022-12-13T22:41:06.123Z,100030.00
2022-12-13T22:46:10.105Z,100014.78
2022-12-13T22:51:14.208Z,100010.66
2022-12-13T22:56:21.487Z,100012.31
2022-12-13T23:01:28.674Z,100008.75
2022-12-13T23:06:32.585Z,100011.91
2022-12-13T23:11:34.540Z,100002.72
2022-12-13T23:16:36.701Z,100004.75
2022-12-13T23:21:38.538Z,99992.16
2022-12-13T23:26:40.025Z,99993.94
2022-12-13T23:31:42.890Z,99984.34
2022-12-13T23:36:50.394Z,99987.09
2022-12-13T23:41:51.789Z,99985.88
2022-12-13T23:46:53.151Z,99978.31
2022-12-13T23:51:54.525Z,99984.06
2022-12-13T23:56:55.970Z,99970.06
